sensor_id;sensor_type;location;lat;lon;timestamp;P1;durP1;ratioP1;P2;durP2;ratioP2
57055;SDS011;42945;51.718;5.324;2023-06-19T00:01:45;12.70;;;6.40;;
57055;SDS011;42945;51.718;5.324;2023-06-19T00:04:10;11.77;;;6.63;;
57055;SDS011;42945;51.718;5.324;2023-06-19T00:06:36;9.23;;;6.82;;
57055;SDS011;42945;51.718;5.324;2023-06-19T00:09:01;9.13;;;6.30;;
57055;SDS011;42945;51.718;5.324;2023-06-19T00:11:27;11.40;;;6.45;;
57055;SDS011;42945;51.718;5.324;2023-06-19T00:13:52;9.20;;;6.28;;
57055;SDS011;42945;51.718;5.324;2023-06-19T00:16:17;10.50;;;6.13;;
57055;SDS011;42945;51.718;5.324;2023-06-19T00:18:44;10.90;;;6.60;;
57055;SDS011;42945;51.718;5.324;2023-06-19T00:21:09;15.38;;;6.38;;
57055;SDS011;42945;51.718;5.324;2023-06-19T00:23:35;9.65;;;6.47;;
57055;SDS011;42945;51.718;5.324;2023-06-19T00:26:00;9.18;;;6.10;;
57055;SDS011;42945;51.718;5.324;2023-06-19T00:28:28;8.30;;;5.00;;
57055;SDS011;42945;51.718;5.324;2023-06-19T00:30:57;6.28;;;4.25;;
57055;SDS011;42945;51.718;5.324;2023-06-19T00:33:22;7.35;;;4.43;;
57055;SDS011;42945;51.718;5.324;2023-06-19T00:35:50;7.10;;;4.50;;
57055;SDS011;42945;51.718;5.324;2023-06-19T00:38:15;6.78;;;4.07;;
57055;SDS011;42945;51.718;5.324;2023-06-19T00:40:41;7.28;;;3.45;;
57055;SDS011;42945;51.718;5.324;2023-06-19T00:43:06;5.75;;;3.13;;
57055;SDS011;42945;51.718;5.324;2023-06-19T00:45:31;5.50;;;3.30;;
57055;SDS011;42945;51.718;5.324;2023-06-19T00:47:57;4.25;;;3.13;;
57055;SDS011;42945;51.718;5.324;2023-06-19T00:50:24;5.82;;;3.30;;
57055;SDS011;42945;51.718;5.324;2023-06-19T00:52:50;5.43;;;3.47;;
57055;SDS011;42945;51.718;5.324;2023-06-19T00:55:16;7.07;;;3.70;;
57055;SDS011;42945;51.718;5.324;2023-06-19T00:57:42;6.13;;;3.33;;
57055;SDS011;42945;51.718;5.324;2023-06-19T01:00:08;7.45;;;3.38;;
57055;SDS011;42945;51.718;5.324;2023-06-19T01:02:37;5.63;;;3.28;;
57055;SDS011;42945;51.718;5.324;2023-06-19T01:05:03;5.50;;;3.28;;
57055;SDS011;42945;51.718;5.324;2023-06-19T01:10:09;4.18;;;2.85;;
57055;SDS011;42945;51.718;5.324;2023-06-19T01:15:07;6.20;;;3.15;;
57055;SDS011;42945;51.718;5.324;2023-06-19T01:17:34;4.93;;;3.30;;
57055;SDS011;42945;51.718;5.324;2023-06-19T01:20:00;6.63;;;3.55;;
57055;SDS011;42945;51.718;5.324;2023-06-19T01:22:32;6.73;;;3.00;;
57055;SDS011;42945;51.718;5.324;2023-06-19T01:24:57;7.47;;;3.10;;
57055;SDS011;42945;51.718;5.324;2023-06-19T01:27:23;6.05;;;2.78;;
57055;SDS011;42945;51.718;5.324;2023-06-19T01:29:58;4.88;;;3.10;;
57055;SDS011;42945;51.718;5.324;2023-06-19T01:34:59;3.83;;;2.70;;
57055;SDS011;42945;51.718;5.324;2023-06-19T01:37:27;4.75;;;2.88;;
57055;SDS011;42945;51.718;5.324;2023-06-19T01:39:54;6.20;;;2.72;;
57055;SDS011;42945;51.718;5.324;2023-06-19T01:42:22;6.47;;;2.92;;
57055;SDS011;42945;51.718;5.324;2023-06-19T01:44:47;5.95;;;2.20;;
57055;SDS011;42945;51.718;5.324;2023-06-19T01:47:14;6.43;;;2.80;;
57055;SDS011;42945;51.718;5.324;2023-06-19T01:49:44;4.35;;;2.17;;
57055;SDS011;42945;51.718;5.324;2023-06-19T01:52:10;4.97;;;2.22;;
57055;SDS011;42945;51.718;5.324;2023-06-19T01:54:35;2.72;;;1.85;;
57055;SDS011;42945;51.718;5.324;2023-06-19T01:57:01;6.43;;;2.20;;
57055;SDS011;42945;51.718;5.324;2023-06-19T01:59:26;5.07;;;2.40;;
57055;SDS011;42945;51.718;5.324;2023-06-19T02:01:51;2.70;;;1.95;;
57055;SDS011;42945;51.718;5.324;2023-06-19T02:04:17;4.15;;;1.98;;
57055;SDS011;42945;51.718;5.324;2023-06-19T02:06:42;3.20;;;2.20;;
57055;SDS011;42945;51.718;5.324;2023-06-19T02:09:07;3.30;;;2.13;;
57055;SDS011;42945;51.718;5.324;2023-06-19T02:11:33;4.65;;;2.00;;
57055;SDS011;42945;51.718;5.324;2023-06-19T02:13:58;4.97;;;2.40;;
57055;SDS011;42945;51.718;5.324;2023-06-19T02:16:23;4.57;;;2.28;;
57055;SDS011;42945;51.718;5.324;2023-06-19T02:18:49;2.55;;;1.88;;
57055;SDS011;42945;51.718;5.324;2023-06-19T02:21:14;3.40;;;2.00;;
57055;SDS011;42945;51.718;5.324;2023-06-19T02:23:40;4.03;;;2.15;;
57055;SDS011;42945;51.718;5.324;2023-06-19T02:26:05;5.50;;;2.25;;
57055;SDS011;42945;51.718;5.324;2023-06-19T02:28:30;8.13;;;2.47;;
57055;SDS011;42945;51.718;5.324;2023-06-19T02:30:55;5.43;;;2.58;;
57055;SDS011;42945;51.718;5.324;2023-06-19T02:33:21;2.83;;;1.80;;
57055;SDS011;42945;51.718;5.324;2023-06-19T02:35:46;3.65;;;2.10;;
57055;SDS011;42945;51.718;5.324;2023-06-19T02:38:11;3.13;;;1.98;;
57055;SDS011;42945;51.718;5.324;2023-06-19T02:40:37;4.68;;;2.28;;
57055;SDS011;42945;51.718;5.324;2023-06-19T02:43:03;5.30;;;1.98;;
57055;SDS011;42945;51.718;5.324;2023-06-19T02:45:28;4.18;;;2.20;;
57055;SDS011;42945;51.718;5.324;2023-06-19T02:47:54;6.93;;;2.00;;
57055;SDS011;42945;51.718;5.324;2023-06-19T02:50:19;6.03;;;2.13;;
57055;SDS011;42945;51.718;5.324;2023-06-19T02:52:45;5.78;;;2.38;;
57055;SDS011;42945;51.718;5.324;2023-06-19T02:55:10;5.40;;;2.28;;
57055;SDS011;42945;51.718;5.324;2023-06-19T02:57:35;4.57;;;2.10;;
57055;SDS011;42945;51.718;5.324;2023-06-19T03:00:00;5.15;;;2.30;;
57055;SDS011;42945;51.718;5.324;2023-06-19T03:02:26;3.03;;;2.10;;
57055;SDS011;42945;51.718;5.324;2023-06-19T03:04:52;4.00;;;2.08;;
57055;SDS011;42945;51.718;5.324;2023-06-19T03:07:17;3.53;;;2.38;;
57055;SDS011;42945;51.718;5.324;2023-06-19T03:09:42;6.55;;;2.75;;
57055;SDS011;42945;51.718;5.324;2023-06-19T03:12:08;5.32;;;2.38;;
57055;SDS011;42945;51.718;5.324;2023-06-19T03:14:34;5.35;;;2.50;;
57055;SDS011;42945;51.718;5.324;2023-06-19T03:16:59;4.15;;;2.50;;
57055;SDS011;42945;51.718;5.324;2023-06-19T03:19:25;3.70;;;2.40;;
57055;SDS011;42945;51.718;5.324;2023-06-19T03:21:50;4.32;;;2.80;;
57055;SDS011;42945;51.718;5.324;2023-06-19T03:24:15;4.63;;;3.05;;
57055;SDS011;42945;51.718;5.324;2023-06-19T03:26:41;5.20;;;2.85;;
57055;SDS011;42945;51.718;5.324;2023-06-19T03:29:06;3.95;;;2.80;;
57055;SDS011;42945;51.718;5.324;2023-06-19T03:31:31;8.20;;;3.10;;
57055;SDS011;42945;51.718;5.324;2023-06-19T03:33:57;3.25;;;2.67;;
57055;SDS011;42945;51.718;5.324;2023-06-19T03:36:22;5.80;;;2.75;;
57055;SDS011;42945;51.718;5.324;2023-06-19T03:38:48;4.63;;;2.90;;
57055;SDS011;42945;51.718;5.324;2023-06-19T03:41:13;6.00;;;3.05;;
57055;SDS011;42945;51.718;5.324;2023-06-19T03:43:39;4.95;;;3.20;;
57055;SDS011;42945;51.718;5.324;2023-06-19T03:46:04;5.38;;;3.10;;
57055;SDS011;42945;51.718;5.324;2023-06-19T03:48:30;6.45;;;3.38;;
57055;SDS011;42945;51.718;5.324;2023-06-19T03:50:55;6.80;;;3.38;;
57055;SDS011;42945;51.718;5.324;2023-06-19T03:53:20;5.75;;;3.60;;
57055;SDS011;42945;51.718;5.324;2023-06-19T03:55:46;4.38;;;3.22;;
57055;SDS011;42945;51.718;5.324;2023-06-19T03:58:11;6.90;;;3.15;;
57055;SDS011;42945;51.718;5.324;2023-06-19T04:00:36;6.22;;;3.70;;
57055;SDS011;42945;51.718;5.324;2023-06-19T04:03:02;7.88;;;3.75;;
57055;SDS011;42945;51.718;5.324;2023-06-19T04:05:27;8.57;;;3.80;;
57055;SDS011;42945;51.718;5.324;2023-06-19T04:07:52;9.68;;;4.22;;
57055;SDS011;42945;51.718;5.324;2023-06-19T04:10:18;5.75;;;3.38;;
57055;SDS011;42945;51.718;5.324;2023-06-19T04:12:43;4.88;;;3.28;;
57055;SDS011;42945;51.718;5.324;2023-06-19T04:15:10;5.97;;;3.60;;
57055;SDS011;42945;51.718;5.324;2023-06-19T04:17:36;7.05;;;3.97;;
57055;SDS011;42945;51.718;5.324;2023-06-19T04:20:01;5.50;;;3.78;;
57055;SDS011;42945;51.718;5.324;2023-06-19T04:22:35;8.23;;;3.92;;
57055;SDS011;42945;51.718;5.324;2023-06-19T04:25:01;5.28;;;4.13;;
57055;SDS011;42945;51.718;5.324;2023-06-19T04:27:26;11.02;;;4.30;;
57055;SDS011;42945;51.718;5.324;2023-06-19T04:29:51;6.93;;;4.40;;
57055;SDS011;42945;51.718;5.324;2023-06-19T04:32:18;9.23;;;5.53;;
57055;SDS011;42945;51.718;5.324;2023-06-19T04:34:43;12.60;;;5.75;;
57055;SDS011;42945;51.718;5.324;2023-06-19T04:37:11;9.77;;;5.72;;
57055;SDS011;42945;51.718;5.324;2023-06-19T04:39:36;9.27;;;5.70;;
57055;SDS011;42945;51.718;5.324;2023-06-19T04:42:01;9.43;;;5.80;;
57055;SDS011;42945;51.718;5.324;2023-06-19T04:44:27;12.88;;;6.70;;
57055;SDS011;42945;51.718;5.324;2023-06-19T04:46:52;10.20;;;6.32;;
57055;SDS011;42945;51.718;5.324;2023-06-19T04:49:25;9.13;;;6.20;;
57055;SDS011;42945;51.718;5.324;2023-06-19T04:51:51;8.73;;;6.43;;
57055;SDS011;42945;51.718;5.324;2023-06-19T04:54:16;10.50;;;6.93;;
57055;SDS011;42945;51.718;5.324;2023-06-19T04:56:41;9.23;;;6.53;;
57055;SDS011;42945;51.718;5.324;2023-06-19T04:59:06;13.65;;;8.05;;
57055;SDS011;42945;51.718;5.324;2023-06-19T05:01:32;11.85;;;7.80;;
57055;SDS011;42945;51.718;5.324;2023-06-19T05:03:57;12.65;;;8.40;;
57055;SDS011;42945;51.718;5.324;2023-06-19T05:06:24;13.13;;;9.02;;
57055;SDS011;42945;51.718;5.324;2023-06-19T05:08:50;12.45;;;7.80;;
57055;SDS011;42945;51.718;5.324;2023-06-19T05:11:16;15.10;;;8.25;;
57055;SDS011;42945;51.718;5.324;2023-06-19T05:13:42;10.95;;;7.45;;
57055;SDS011;42945;51.718;5.324;2023-06-19T05:16:07;10.23;;;6.90;;
57055;SDS011;42945;51.718;5.324;2023-06-19T05:18:32;9.95;;;6.90;;
57055;SDS011;42945;51.718;5.324;2023-06-19T05:20:58;10.77;;;5.85;;
57055;SDS011;42945;51.718;5.324;2023-06-19T05:23:23;10.90;;;6.35;;
57055;SDS011;42945;51.718;5.324;2023-06-19T05:25:49;10.65;;;6.28;;
57055;SDS011;42945;51.718;5.324;2023-06-19T05:28:14;7.47;;;5.60;;
57055;SDS011;42945;51.718;5.324;2023-06-19T05:30:40;8.25;;;6.30;;
57055;SDS011;42945;51.718;5.324;2023-06-19T05:33:05;10.60;;;7.30;;
57055;SDS011;42945;51.718;5.324;2023-06-19T05:35:30;13.48;;;7.68;;
57055;SDS011;42945;51.718;5.324;2023-06-19T05:37:56;11.60;;;8.30;;
57055;SDS011;42945;51.718;5.324;2023-06-19T05:40:22;11.63;;;7.55;;
57055;SDS011;42945;51.718;5.324;2023-06-19T05:42:47;11.73;;;8.27;;
57055;SDS011;42945;51.718;5.324;2023-06-19T05:45:12;11.95;;;8.57;;
57055;SDS011;42945;51.718;5.324;2023-06-19T05:47:40;12.10;;;8.85;;
57055;SDS011;42945;51.718;5.324;2023-06-19T05:50:06;15.15;;;9.50;;
57055;SDS011;42945;51.718;5.324;2023-06-19T05:52:31;13.45;;;8.23;;
57055;SDS011;42945;51.718;5.324;2023-06-19T05:54:56;12.43;;;9.38;;
57055;SDS011;42945;51.718;5.324;2023-06-19T05:57:23;13.15;;;9.95;;
57055;SDS011;42945;51.718;5.324;2023-06-19T05:59:48;12.02;;;9.48;;
57055;SDS011;42945;51.718;5.324;2023-06-19T06:02:14;13.38;;;9.13;;
57055;SDS011;42945;51.718;5.324;2023-06-19T06:04:40;13.82;;;9.25;;
57055;SDS011;42945;51.718;5.324;2023-06-19T06:07:05;15.35;;;9.35;;
57055;SDS011;42945;51.718;5.324;2023-06-19T06:09:31;12.07;;;8.35;;
57055;SDS011;42945;51.718;5.324;2023-06-19T06:11:58;10.18;;;7.47;;
57055;SDS011;42945;51.718;5.324;2023-06-19T06:14:23;11.15;;;7.68;;
57055;SDS011;42945;51.718;5.324;2023-06-19T06:16:48;12.77;;;8.20;;
57055;SDS011;42945;51.718;5.324;2023-06-19T06:19:14;12.10;;;7.53;;
57055;SDS011;42945;51.718;5.324;2023-06-19T06:21:39;11.68;;;7.05;;
57055;SDS011;42945;51.718;5.324;2023-06-19T06:24:05;10.68;;;8.30;;
57055;SDS011;42945;51.718;5.324;2023-06-19T06:26:31;13.20;;;7.72;;
57055;SDS011;42945;51.718;5.324;2023-06-19T06:28:58;10.90;;;7.70;;
57055;SDS011;42945;51.718;5.324;2023-06-19T06:31:24;15.15;;;8.15;;
57055;SDS011;42945;51.718;5.324;2023-06-19T06:33:49;14.48;;;8.18;;
57055;SDS011;42945;51.718;5.324;2023-06-19T06:36:15;13.35;;;7.72;;
57055;SDS011;42945;51.718;5.324;2023-06-19T06:38:40;11.23;;;7.50;;
57055;SDS011;42945;51.718;5.324;2023-06-19T06:41:05;10.75;;;7.65;;
57055;SDS011;42945;51.718;5.324;2023-06-19T06:43:31;11.82;;;7.20;;
57055;SDS011;42945;51.718;5.324;2023-06-19T06:45:56;14.98;;;8.45;;
57055;SDS011;42945;51.718;5.324;2023-06-19T06:48:21;13.60;;;8.50;;
57055;SDS011;42945;51.718;5.324;2023-06-19T06:50:47;13.43;;;8.73;;
57055;SDS011;42945;51.718;5.324;2023-06-19T06:53:12;15.73;;;9.07;;
57055;SDS011;42945;51.718;5.324;2023-06-19T06:55:38;13.15;;;8.40;;
57055;SDS011;42945;51.718;5.324;2023-06-19T06:58:03;13.30;;;8.55;;
57055;SDS011;42945;51.718;5.324;2023-06-19T07:00:30;12.82;;;8.38;;
57055;SDS011;42945;51.718;5.324;2023-06-19T07:02:55;14.90;;;8.70;;
57055;SDS011;42945;51.718;5.324;2023-06-19T07:05:20;13.60;;;8.23;;
57055;SDS011;42945;51.718;5.324;2023-06-19T07:07:46;14.40;;;8.32;;
57055;SDS011;42945;51.718;5.324;2023-06-19T07:10:11;12.00;;;8.38;;
57055;SDS011;42945;51.718;5.324;2023-06-19T07:12:44;11.00;;;8.23;;
57055;SDS011;42945;51.718;5.324;2023-06-19T07:15:13;13.43;;;8.48;;
57055;SDS011;42945;51.718;5.324;2023-06-19T07:17:38;11.23;;;8.30;;
57055;SDS011;42945;51.718;5.324;2023-06-19T07:20:04;13.23;;;9.20;;
57055;SDS011;42945;51.718;5.324;2023-06-19T07:22:31;14.25;;;9.70;;
57055;SDS011;42945;51.718;5.324;2023-06-19T07:24:56;12.60;;;9.38;;
57055;SDS011;42945;51.718;5.324;2023-06-19T07:27:22;14.63;;;10.77;;
57055;SDS011;42945;51.718;5.324;2023-06-19T07:29:47;19.95;;;10.25;;
57055;SDS011;42945;51.718;5.324;2023-06-19T07:32:12;13.20;;;9.95;;
57055;SDS011;42945;51.718;5.324;2023-06-19T07:34:38;13.43;;;10.40;;
57055;SDS011;42945;51.718;5.324;2023-06-19T07:37:03;18.08;;;10.93;;
57055;SDS011;42945;51.718;5.324;2023-06-19T07:39:29;13.23;;;10.52;;
57055;SDS011;42945;51.718;5.324;2023-06-19T07:41:56;14.38;;;9.73;;
57055;SDS011;42945;51.718;5.324;2023-06-19T07:44:21;16.58;;;11.02;;
57055;SDS011;42945;51.718;5.324;2023-06-19T07:46:46;13.80;;;10.73;;
57055;SDS011;42945;51.718;5.324;2023-06-19T07:49:12;12.48;;;10.40;;
57055;SDS011;42945;51.718;5.324;2023-06-19T07:51:37;14.85;;;11.13;;
57055;SDS011;42945;51.718;5.324;2023-06-19T07:54:02;12.55;;;10.15;;
57055;SDS011;42945;51.718;5.324;2023-06-19T07:56:28;14.35;;;11.05;;
57055;SDS011;42945;51.718;5.324;2023-06-19T07:58:53;16.63;;;12.63;;
57055;SDS011;42945;51.718;5.324;2023-06-19T08:01:18;17.98;;;12.82;;
57055;SDS011;42945;51.718;5.324;2023-06-19T08:03:44;18.77;;;12.95;;
57055;SDS011;42945;51.718;5.324;2023-06-19T08:06:10;19.25;;;12.68;;
57055;SDS011;42945;51.718;5.324;2023-06-19T08:08:35;20.27;;;13.00;;
57055;SDS011;42945;51.718;5.324;2023-06-19T08:11:01;19.55;;;13.10;;
57055;SDS011;42945;51.718;5.324;2023-06-19T08:13:26;18.30;;;12.70;;
57055;SDS011;42945;51.718;5.324;2023-06-19T08:15:52;16.98;;;13.05;;
57055;SDS011;42945;51.718;5.324;2023-06-19T08:18:17;22.15;;;13.02;;
57055;SDS011;42945;51.718;5.324;2023-06-19T08:20:43;16.52;;;13.38;;
57055;SDS011;42945;51.718;5.324;2023-06-19T08:23:08;16.17;;;12.73;;
57055;SDS011;42945;51.718;5.324;2023-06-19T08:25:33;18.33;;;13.30;;
57055;SDS011;42945;51.718;5.324;2023-06-19T08:27:58;17.00;;;13.25;;
57055;SDS011;42945;51.718;5.324;2023-06-19T08:30:24;16.63;;;13.15;;
57055;SDS011;42945;51.718;5.324;2023-06-19T08:32:49;18.45;;;14.32;;
57055;SDS011;42945;51.718;5.324;2023-06-19T08:35:15;18.63;;;14.90;;
57055;SDS011;42945;51.718;5.324;2023-06-19T08:37:40;18.52;;;14.50;;
57055;SDS011;42945;51.718;5.324;2023-06-19T08:40:06;19.83;;;15.23;;
57055;SDS011;42945;51.718;5.324;2023-06-19T08:42:34;19.13;;;14.18;;
57055;SDS011;42945;51.718;5.324;2023-06-19T08:45:00;19.55;;;14.80;;
57055;SDS011;42945;51.718;5.324;2023-06-19T08:47:29;18.33;;;15.48;;
57055;SDS011;42945;51.718;5.324;2023-06-19T08:49:56;23.30;;;16.45;;
57055;SDS011;42945;51.718;5.324;2023-06-19T08:52:23;20.52;;;15.20;;
57055;SDS011;42945;51.718;5.324;2023-06-19T08:54:49;19.77;;;15.73;;
57055;SDS011;42945;51.718;5.324;2023-06-19T08:57:14;21.90;;;16.63;;
57055;SDS011;42945;51.718;5.324;2023-06-19T08:59:41;22.17;;;17.27;;
57055;SDS011;42945;51.718;5.324;2023-06-19T09:02:13;25.77;;;15.88;;
57055;SDS011;42945;51.718;5.324;2023-06-19T09:04:39;22.20;;;16.40;;
57055;SDS011;42945;51.718;5.324;2023-06-19T09:07:04;22.08;;;17.20;;
57055;SDS011;42945;51.718;5.324;2023-06-19T09:09:32;20.02;;;17.10;;
57055;SDS011;42945;51.718;5.324;2023-06-19T09:12:07;20.65;;;17.75;;
57055;SDS011;42945;51.718;5.324;2023-06-19T09:14:38;25.45;;;17.13;;
57055;SDS011;42945;51.718;5.324;2023-06-19T09:17:10;21.83;;;17.40;;
57055;SDS011;42945;51.718;5.324;2023-06-19T09:19:37;19.25;;;16.13;;
57055;SDS011;42945;51.718;5.324;2023-06-19T09:22:05;22.42;;;17.35;;
57055;SDS011;42945;51.718;5.324;2023-06-19T09:24:38;22.13;;;16.95;;
57055;SDS011;42945;51.718;5.324;2023-06-19T09:27:05;20.92;;;17.60;;
57055;SDS011;42945;51.718;5.324;2023-06-19T09:29:37;19.88;;;15.10;;
57055;SDS011;42945;51.718;5.324;2023-06-19T09:32:13;22.02;;;16.52;;
57055;SDS011;42945;51.718;5.324;2023-06-19T09:34:39;22.60;;;16.88;;
57055;SDS011;42945;51.718;5.324;2023-06-19T09:37:04;18.55;;;13.82;;
57055;SDS011;42945;51.718;5.324;2023-06-19T09:39:30;20.55;;;14.55;;
57055;SDS011;42945;51.718;5.324;2023-06-19T09:41:56;20.40;;;15.63;;
57055;SDS011;42945;51.718;5.324;2023-06-19T09:44:24;20.90;;;15.77;;
57055;SDS011;42945;51.718;5.324;2023-06-19T09:46:50;24.10;;;16.95;;
57055;SDS011;42945;51.718;5.324;2023-06-19T09:49:19;20.52;;;16.55;;
57055;SDS011;42945;51.718;5.324;2023-06-19T09:51:49;21.83;;;17.52;;
57055;SDS011;42945;51.718;5.324;2023-06-19T09:54:16;18.35;;;15.25;;
57055;SDS011;42945;51.718;5.324;2023-06-19T09:56:42;23.50;;;14.98;;
57055;SDS011;42945;51.718;5.324;2023-06-19T09:59:08;18.73;;;15.25;;
57055;SDS011;42945;51.718;5.324;2023-06-19T10:01:34;21.80;;;16.35;;
57055;SDS011;42945;51.718;5.324;2023-06-19T10:04:05;19.67;;;16.10;;
57055;SDS011;42945;51.718;5.324;2023-06-19T10:06:32;23.00;;;16.48;;
57055;SDS011;42945;51.718;5.324;2023-06-19T10:09:05;20.85;;;17.02;;
57055;SDS011;42945;51.718;5.324;2023-06-19T10:11:46;21.23;;;14.95;;
57055;SDS011;42945;51.718;5.324;2023-06-19T10:14:12;22.80;;;17.13;;
57055;SDS011;42945;51.718;5.324;2023-06-19T10:16:40;21.30;;;14.43;;
57055;SDS011;42945;51.718;5.324;2023-06-19T10:19:13;19.92;;;13.70;;
57055;SDS011;42945;51.718;5.324;2023-06-19T10:21:47;19.50;;;15.32;;
57055;SDS011;42945;51.718;5.324;2023-06-19T10:24:18;20.15;;;13.57;;
57055;SDS011;42945;51.718;5.324;2023-06-19T10:27:00;18.45;;;13.88;;
57055;SDS011;42945;51.718;5.324;2023-06-19T10:29:37;22.02;;;13.98;;
57055;SDS011;42945;51.718;5.324;2023-06-19T10:32:03;15.18;;;13.00;;
57055;SDS011;42945;51.718;5.324;2023-06-19T10:34:32;20.30;;;14.95;;
57055;SDS011;42945;51.718;5.324;2023-06-19T10:36:58;17.40;;;13.25;;
57055;SDS011;42945;51.718;5.324;2023-06-19T10:39:24;19.02;;;13.18;;
57055;SDS011;42945;51.718;5.324;2023-06-19T10:41:50;20.35;;;14.63;;
57055;SDS011;42945;51.718;5.324;2023-06-19T10:44:15;20.98;;;13.50;;
57055;SDS011;42945;51.718;5.324;2023-06-19T10:46:41;19.88;;;14.13;;
57055;SDS011;42945;51.718;5.324;2023-06-19T10:49:07;20.33;;;13.68;;
57055;SDS011;42945;51.718;5.324;2023-06-19T10:51:36;18.80;;;13.10;;
57055;SDS011;42945;51.718;5.324;2023-06-19T10:54:03;17.40;;;10.88;;
57055;SDS011;42945;51.718;5.324;2023-06-19T10:56:29;17.95;;;12.00;;
57055;SDS011;42945;51.718;5.324;2023-06-19T10:59:05;18.05;;;12.23;;
57055;SDS011;42945;51.718;5.324;2023-06-19T11:01:34;24.02;;;13.10;;
57055;SDS011;42945;51.718;5.324;2023-06-19T11:04:20;17.20;;;12.23;;
57055;SDS011;42945;51.718;5.324;2023-06-19T11:06:48;18.30;;;12.98;;
57055;SDS011;42945;51.718;5.324;2023-06-19T11:09:14;20.58;;;12.77;;
57055;SDS011;42945;51.718;5.324;2023-06-19T11:11:41;16.33;;;12.57;;
57055;SDS011;42945;51.718;5.324;2023-06-19T11:14:08;15.60;;;12.63;;
57055;SDS011;42945;51.718;5.324;2023-06-19T11:16:34;22.50;;;13.38;;
57055;SDS011;42945;51.718;5.324;2023-06-19T11:19:02;20.60;;;14.95;;
57055;SDS011;42945;51.718;5.324;2023-06-19T11:21:31;19.92;;;13.45;;
57055;SDS011;42945;51.718;5.324;2023-06-19T11:24:00;22.23;;;13.68;;
57055;SDS011;42945;51.718;5.324;2023-06-19T11:26:26;23.75;;;14.02;;
57055;SDS011;42945;51.718;5.324;2023-06-19T11:28:52;22.35;;;13.52;;
57055;SDS011;42945;51.718;5.324;2023-06-19T11:31:24;16.83;;;11.43;;
57055;SDS011;42945;51.718;5.324;2023-06-19T11:33:59;19.50;;;12.52;;
57055;SDS011;42945;51.718;5.324;2023-06-19T11:36:27;17.80;;;11.25;;
57055;SDS011;42945;51.718;5.324;2023-06-19T11:38:52;15.48;;;10.02;;
57055;SDS011;42945;51.718;5.324;2023-06-19T11:41:25;17.48;;;10.18;;
57055;SDS011;42945;51.718;5.324;2023-06-19T11:43:57;14.10;;;9.15;;
57055;SDS011;42945;51.718;5.324;2023-06-19T11:46:28;16.33;;;9.68;;
57055;SDS011;42945;51.718;5.324;2023-06-19T11:48:54;16.67;;;9.25;;
57055;SDS011;42945;51.718;5.324;2023-06-19T11:51:21;16.10;;;8.40;;
57055;SDS011;42945;51.718;5.324;2023-06-19T11:53:46;10.95;;;8.50;;
57055;SDS011;42945;51.718;5.324;2023-06-19T11:56:12;13.60;;;8.65;;
57055;SDS011;42945;51.718;5.324;2023-06-19T11:58:37;12.57;;;8.65;;
57055;SDS011;42945;51.718;5.324;2023-06-19T12:01:02;13.55;;;9.18;;
57055;SDS011;42945;51.718;5.324;2023-06-19T12:03:28;13.18;;;7.38;;
57055;SDS011;42945;51.718;5.324;2023-06-19T12:05:53;12.65;;;7.32;;
57055;SDS011;42945;51.718;5.324;2023-06-19T12:08:18;15.50;;;8.05;;
57055;SDS011;42945;51.718;5.324;2023-06-19T12:10:44;13.90;;;8.23;;
57055;SDS011;42945;51.718;5.324;2023-06-19T12:13:09;12.60;;;7.38;;
57055;SDS011;42945;51.718;5.324;2023-06-19T12:15:34;13.57;;;7.55;;
57055;SDS011;42945;51.718;5.324;2023-06-19T12:18:00;11.82;;;7.05;;
57055;SDS011;42945;51.718;5.324;2023-06-19T12:20:25;16.73;;;7.57;;
57055;SDS011;42945;51.718;5.324;2023-06-19T12:22:51;12.75;;;7.60;;
57055;SDS011;42945;51.718;5.324;2023-06-19T12:25:16;11.07;;;7.07;;
57055;SDS011;42945;51.718;5.324;2023-06-19T12:27:42;17.17;;;7.05;;
57055;SDS011;42945;51.718;5.324;2023-06-19T12:30:07;9.07;;;7.22;;
57055;SDS011;42945;51.718;5.324;2023-06-19T12:32:33;11.20;;;7.75;;
57055;SDS011;42945;51.718;5.324;2023-06-19T12:34:58;12.38;;;6.97;;
57055;SDS011;42945;51.718;5.324;2023-06-19T12:37:24;11.32;;;6.32;;
57055;SDS011;42945;51.718;5.324;2023-06-19T12:39:50;9.65;;;7.00;;
57055;SDS011;42945;51.718;5.324;2023-06-19T12:42:15;10.85;;;6.97;;
57055;SDS011;42945;51.718;5.324;2023-06-19T12:44:41;10.48;;;7.00;;
57055;SDS011;42945;51.718;5.324;2023-06-19T12:47:07;12.20;;;6.88;;
57055;SDS011;42945;51.718;5.324;2023-06-19T12:49:33;10.70;;;7.32;;
57055;SDS011;42945;51.718;5.324;2023-06-19T12:51:59;9.85;;;7.07;;
57055;SDS011;42945;51.718;5.324;2023-06-19T12:54:25;9.25;;;6.45;;
57055;SDS011;42945;51.718;5.324;2023-06-19T12:56:51;12.77;;;7.32;;
57055;SDS011;42945;51.718;5.324;2023-06-19T12:59:16;10.32;;;7.03;;
57055;SDS011;42945;51.718;5.324;2023-06-19T13:01:42;8.50;;;6.85;;
57055;SDS011;42945;51.718;5.324;2023-06-19T13:04:08;16.05;;;7.68;;
57055;SDS011;42945;51.718;5.324;2023-06-19T13:06:33;10.52;;;6.65;;
57055;SDS011;42945;51.718;5.324;2023-06-19T13:09:01;9.77;;;7.13;;
57055;SDS011;42945;51.718;5.324;2023-06-19T13:11:27;12.27;;;7.45;;
57055;SDS011;42945;51.718;5.324;2023-06-19T13:13:53;10.38;;;7.03;;
57055;SDS011;42945;51.718;5.324;2023-06-19T13:16:18;10.00;;;7.60;;
57055;SDS011;42945;51.718;5.324;2023-06-19T13:18:44;12.27;;;6.55;;
57055;SDS011;42945;51.718;5.324;2023-06-19T13:21:09;10.25;;;6.53;;
57055;SDS011;42945;51.718;5.324;2023-06-19T13:23:35;11.80;;;6.80;;
57055;SDS011;42945;51.718;5.324;2023-06-19T13:26:01;9.30;;;6.80;;
57055;SDS011;42945;51.718;5.324;2023-06-19T13:28:26;14.85;;;8.18;;
57055;SDS011;42945;51.718;5.324;2023-06-19T13:30:52;10.40;;;6.88;;
57055;SDS011;42945;51.718;5.324;2023-06-19T13:33:17;11.60;;;6.60;;
57055;SDS011;42945;51.718;5.324;2023-06-19T13:35:42;15.23;;;7.45;;
57055;SDS011;42945;51.718;5.324;2023-06-19T13:38:08;12.68;;;7.38;;
57055;SDS011;42945;51.718;5.324;2023-06-19T13:40:34;16.05;;;7.28;;
57055;SDS011;42945;51.718;5.324;2023-06-19T13:43:00;12.43;;;7.30;;
57055;SDS011;42945;51.718;5.324;2023-06-19T13:45:27;11.15;;;6.70;;
57055;SDS011;42945;51.718;5.324;2023-06-19T13:47:52;12.52;;;6.13;;
57055;SDS011;42945;51.718;5.324;2023-06-19T13:50:18;10.50;;;6.75;;
57055;SDS011;42945;51.718;5.324;2023-06-19T13:52:46;11.23;;;7.05;;
57055;SDS011;42945;51.718;5.324;2023-06-19T13:55:12;9.23;;;6.32;;
57055;SDS011;42945;51.718;5.324;2023-06-19T13:57:39;8.95;;;6.32;;
57055;SDS011;42945;51.718;5.324;2023-06-19T14:00:05;9.38;;;6.22;;
57055;SDS011;42945;51.718;5.324;2023-06-19T14:02:32;9.10;;;6.15;;
57055;SDS011;42945;51.718;5.324;2023-06-19T14:04:57;11.52;;;6.20;;
57055;SDS011;42945;51.718;5.324;2023-06-19T14:07:23;9.85;;;6.20;;
57055;SDS011;42945;51.718;5.324;2023-06-19T14:09:49;10.50;;;6.15;;
57055;SDS011;42945;51.718;5.324;2023-06-19T14:12:14;11.52;;;6.15;;
57055;SDS011;42945;51.718;5.324;2023-06-19T14:14:39;11.13;;;6.25;;
57055;SDS011;42945;51.718;5.324;2023-06-19T14:17:05;11.65;;;7.10;;
57055;SDS011;42945;51.718;5.324;2023-06-19T14:19:31;14.27;;;7.45;;
57055;SDS011;42945;51.718;5.324;2023-06-19T14:21:56;8.55;;;6.72;;
57055;SDS011;42945;51.718;5.324;2023-06-19T14:24:21;11.30;;;7.22;;
57055;SDS011;42945;51.718;5.324;2023-06-19T14:26:48;9.27;;;6.07;;
57055;SDS011;42945;51.718;5.324;2023-06-19T14:29:13;9.65;;;6.47;;
57055;SDS011;42945;51.718;5.324;2023-06-19T14:31:40;7.38;;;5.32;;
57055;SDS011;42945;51.718;5.324;2023-06-19T14:34:06;9.73;;;5.70;;
57055;SDS011;42945;51.718;5.324;2023-06-19T14:36:32;9.90;;;6.85;;
57055;SDS011;42945;51.718;5.324;2023-06-19T14:38:58;11.35;;;7.30;;